createdAt,value
2023-05-05T00:00:31.659Z,99221.63
2023-05-05T00:01:33.518Z,99221.63
2023-05-05T00:02:35.390Z,99223.47
2023-05-05T00:03:37.664Z,99209.28
2023-05-05T00:04:39.494Z,99213.91
2023-05-05T00:05:42.277Z,99204.19
2023-05-05T00:06:43.991Z,99213.50
2023-05-05T00:07:45.764Z,99214.09
2023-05-05T00:08:47.735Z,99212.03
2023-05-05T00:09:49.469Z,99212.03
2023-05-05T00:10:52.306Z,99214.69
2023-05-05T00:11:54.004Z,99203.47
2023-05-05T00:12:55.754Z,99212.69
2023-05-05T00:13:57.506Z,99207.00
2023-05-05T00:14:59.229Z,99206.03
2023-05-05T00:16:01.047Z,99212.16
2023-05-05T00:17:04.180Z,99212.97
2023-05-05T00:18:06.140Z,99211.78
2023-05-05T00:19:07.949Z,99204.63
2023-05-05T00:20:10.082Z,99196.88
2023-05-05T00:21:12.026Z,99203.38
2023-05-05T00:22:13.735Z,99198.28
2023-05-05T00:23:16.380Z,99196.81
2023-05-05T00:24:18.139Z,99201.69
2023-05-05T00:25:19.866Z,99196.97
2023-05-05T00:26:21.723Z,99195.94
2023-05-05T00:27:23.424Z,99187.81
2023-05-05T00:28:25.159Z,99197.13
2023-05-05T00:29:26.900Z,99196.09
2023-05-05T00:30:28.705Z,99199.56
2023-05-05T00:31:30.596Z,99194.25
2023-05-05T00:32:32.500Z,99197.13
2023-05-05T00:33:34.297Z,99191.00
2023-05-05T00:34:36.064Z,99187.97
2023-05-05T00:35:37.998Z,99192.84
2023-05-05T00:36:40.079Z,99189.00
2023-05-05T00:37:41.887Z,99191.81
2023-05-05T00:38:43.684Z,99192.25
2023-05-05T00:39:45.374Z,99188.56
2023-05-05T00:40:47.087Z,99191.22
2023-05-05T00:41:48.855Z,99194.09
2023-05-05T00:42:53.595Z,99181.47
2023-05-05T00:43:55.330Z,99185.91
2023-05-05T00:44:57.558Z,99187.75
2023-05-05T00:46:09.360Z,99192.84
2023-05-05T00:47:14.873Z,99189.38
2023-05-05T00:48:17.966Z,99191.59
2023-05-05T00:49:19.712Z,99190.78
2023-05-05T00:50:26.529Z,99186.50
2023-05-05T00:51:28.747Z,99187.88
2023-05-05T00:52:31.439Z,99186.03
2023-05-05T00:53:33.843Z,99184.19
2023-05-05T00:54:36.591Z,99186.03
2023-05-05T00:55:38.387Z,99192.16
2023-05-05T00:56:40.298Z,99192.16
2023-05-05T00:57:42.228Z,99191.72
2023-05-05T00:58:44.272Z,99198.44
2023-05-05T00:59:47.003Z,99193.94
2023-05-05T01:00:48.957Z,99191.06
2023-05-05T01:01:50.979Z,99192.53
2023-05-05T01:02:52.996Z,99185.59
2023-05-05T01:03:55.665Z,99194.16
2023-05-05T01:04:58.539Z,99194.16
2023-05-05T01:06:03.237Z,99197.13
2023-05-05T01:07:35.386Z,99200.00
2023-05-05T01:09:02.181Z,99194.09
2023-05-05T01:10:20.101Z,99186.13
2023-05-05T01:11:40.310Z,99185.31
2023-05-05T01:12:42.025Z,99188.56
2023-05-05T01:13:58.256Z,99189.59
2023-05-05T01:15:02.931Z,99189.38
2023-05-05T01:16:27.687Z,99183.25
2023-05-05T01:17:41.960Z,99183.25
2023-05-05T01:18:47.012Z,99175.88
2023-05-05T01:20:33.149Z,99176.91
2023-05-05T01:21:43.319Z,99178.31
2023-05-05T01:22:57.411Z,99179.13
2023-05-05T01:24:25.490Z,99175.88
2023-05-05T01:25:57.532Z,99186.41
2023-05-05T01:27:52.691Z,99176.00
2023-05-05T01:28:59.971Z,99165.59
2023-05-05T01:30:24.611Z,99167.75
2023-05-05T01:31:55.176Z,99173.44
2023-05-05T01:33:04.065Z,99165.75
2023-05-05T01:34:09.921Z,99146.88
2023-05-05T01:35:14.398Z,99171.22
2023-05-05T01:36:23.692Z,99171.44
2023-05-05T01:37:30.738Z,99171.44
2023-05-05T01:38:38.125Z,99172.25
2023-05-05T01:39:42.879Z,99166.13
2023-05-05T01:41:03.863Z,99165.53
2023-05-05T01:42:10.121Z,99153.97
2023-05-05T01:43:13.638Z,99165.75
2023-05-05T01:44:16.964Z,99162.88
2023-05-05T01:45:21.904Z,99168.78
2023-05-05T01:46:24.840Z,99166.94
2023-05-05T01:47:28.533Z,99166.50
2023-05-05T01:48:31.232Z,99160.38
2023-05-05T01:49:34.039Z,99160.38
2023-05-05T01:50:36.993Z,99166.28
2023-05-05T01:51:40.613Z,99166.88
2023-05-05T01:52:43.197Z,99160.53
2023-05-05T01:53:47.397Z,99163.75
2023-05-05T01:54:50.815Z,99168.50
2023-05-05T01:55:54.581Z,99166.19
2023-05-05T01:56:59.079Z,99159.47
2023-05-05T01:58:02.549Z,99176.69
2023-05-05T01:59:05.372Z,99164.50
2023-05-05T02:00:09.831Z,99165.41
2023-05-05T02:01:13.760Z,99159.81
2023-05-05T02:02:16.738Z,99168.72
2023-05-05T02:03:21.052Z,99164.59
2023-05-05T02:04:24.374Z,99163.63
2023-05-05T02:05:27.221Z,99165.69
2023-05-05T02:06:32.623Z,99163.72
2023-05-05T02:07:35.462Z,99164.31
2023-05-05T02:08:39.422Z,99163.63
2023-05-05T02:09:43.392Z,99163.94
2023-05-05T02:10:47.841Z,99160.84
2023-05-05T02:11:50.070Z,99162.47
2023-05-05T02:12:53.283Z,99166.28
2023-05-05T02:13:55.941Z,99154.84
2023-05-05T02:15:01.569Z,99162.97
2023-05-05T02:16:05.545Z,99162.16
2023-05-05T02:17:08.995Z,99160.09
2023-05-05T02:18:11.613Z,99161.50
2023-05-05T02:19:15.118Z,99155.94
2023-05-05T02:20:19.262Z,99158.38
2023-05-05T02:21:21.111Z,99156.75
2023-05-05T02:22:23.136Z,99155.13
2023-05-05T02:23:25.913Z,99156.19
2023-05-05T02:24:27.801Z,99157.22
2023-05-05T02:25:40.440Z,99160.53
2023-05-05T02:26:46.105Z,99155.66
2023-05-05T02:27:49.442Z,99157.38
2023-05-05T02:29:07.630Z,99162.75
2023-05-05T02:30:13.868Z,99156.03
2023-05-05T02:31:17.990Z,99164.81
2023-05-05T02:32:35.131Z,99154.88
2023-05-05T02:33:38.815Z,99160.38
2023-05-05T02:34:42.985Z,99154.31
2023-05-05T02:35:47.399Z,99158.81
2023-05-05T02:36:52.812Z,99154.31
2023-05-05T02:38:02.823Z,99153.97
2023-05-05T02:39:12.890Z,99150.72
2023-05-05T02:40:18.024Z,99142.81
2023-05-05T02:41:21.390Z,99154.63
2023-05-05T02:42:24.092Z,99154.63
2023-05-05T02:43:27.465Z,99153.81
2023-05-05T02:44:31.985Z,99155.66
2023-05-05T02:45:33.780Z,99149.53
2023-05-05T02:46:37.985Z,99164.41
2023-05-05T02:47:39.828Z,99159.31
2023-05-05T02:48:41.666Z,99146.13
2023-05-05T02:49:43.404Z,99157.69
2023-05-05T02:50:45.101Z,99159.31
2023-05-05T02:51:46.930Z,99157.28
2023-05-05T02:52:48.778Z,99157.09
2023-05-05T02:53:52.423Z,99159.31
2023-05-05T02:54:54.235Z,99152.41
2023-05-05T02:56:25.194Z,99158.72
2023-05-05T02:57:36.161Z,99153.22
2023-05-05T02:58:46.434Z,99149.16
2023-05-05T03:00:05.783Z,99157.69
2023-05-05T03:01:57.527Z,99152.41
2023-05-05T03:03:18.978Z,99152.41
2023-05-05T03:04:31.964Z,99155.88
2023-05-05T03:05:41.673Z,99156.28
2023-05-05T03:06:49.180Z,99156.53
2023-05-05T03:08:00.746Z,99146.78
2023-05-05T03:09:05.097Z,99151.06
2023-05-05T03:10:14.151Z,99149.66
2023-05-05T03:11:27.878Z,99155.16
2023-05-05T03:12:45.445Z,99156.19
2023-05-05T03:13:51.877Z,99157.22
2023-05-05T03:14:58.202Z,99145.72
2023-05-05T03:16:06.835Z,99152.22
2023-05-05T03:17:13.570Z,99161.56
2023-05-05T03:18:17.750Z,99153.41
2023-05-05T03:19:21.494Z,99154.22
2023-05-05T03:20:23.508Z,99147.28
2023-05-05T03:21:25.617Z,99152.97
2023-05-05T03:22:27.869Z,99154.56
2023-05-05T03:23:29.660Z,99152.81
2023-05-05T03:24:31.434Z,99152.81
2023-05-05T03:25:46.366Z,99160.13
2023-05-05T03:26:52.042Z,99157.69
2023-05-05T03:27:53.733Z,99152.22
2023-05-05T03:28:55.440Z,99150.97
2023-05-05T03:29:57.335Z,99154.66
2023-05-05T03:30:59.224Z,99162.19
2023-05-05T03:32:01.573Z,99157.47
2023-05-05T03:33:03.612Z,99156.06
2023-05-05T03:34:06.283Z,99148.97
2023-05-05T03:35:08.351Z,99167.25
2023-05-05T03:36:10.784Z,99163.59
2023-05-05T03:37:12.549Z,99162.38
2023-05-05T03:38:14.240Z,99166.06
2023-05-05T03:39:16.031Z,99168.50
2023-05-05T03:40:17.816Z,99170.34
2023-05-05T03:41:20.657Z,99171.97
2023-05-05T03:42:22.392Z,99168.72
2023-05-05T03:43:24.102Z,99173.41
2023-05-05T03:44:25.797Z,99170.78
2023-05-05T03:45:27.568Z,99164.66
2023-05-05T03:46:29.320Z,99176.66
2023-05-05T03:47:31.152Z,99168.50
2023-05-05T03:48:34.237Z,99173.38
2023-05-05T03:49:35.979Z,99167.25
2023-05-05T03:50:37.830Z,99171.09
2023-05-05T03:51:39.608Z,99164.97
2023-05-05T03:52:41.356Z,99176.03
2023-05-05T03:53:43.075Z,99172.09
2023-05-05T03:54:46.222Z,99174.97
2023-05-05T03:55:48.222Z,99175.38
2023-05-05T03:56:49.915Z,99175.16
2023-05-05T03:57:51.766Z,99184.94
2023-05-05T03:58:53.497Z,99178.81
2023-05-05T03:59:55.284Z,99182.28
2023-05-05T04:00:57.469Z,99181.25
2023-05-05T04:01:59.217Z,99190.84
2023-05-05T04:03:01.110Z,99187.38
2023-05-05T04:04:02.912Z,99188.63
2023-05-05T04:05:04.970Z,99194.53
2023-05-05T04:06:06.695Z,99190.09
2023-05-05T04:07:08.458Z,99190.09
2023-05-05T04:08:10.621Z,99190.31
2023-05-05T04:09:12.456Z,99186.41
2023-05-05T04:10:14.197Z,99188.03
2023-05-05T04:11:16.230Z,99189.44
2023-05-05T04:12:17.916Z,99191.88
2023-05-05T04:13:19.712Z,99187.59
2023-05-05T04:14:21.527Z,99189.66
2023-05-05T04:15:23.330Z,99194.53
2023-05-05T04:16:25.140Z,99191.88
2023-05-05T04:17:27.063Z,99198.19
2023-05-05T04:18:28.857Z,99190.03
2023-05-05T04:19:33.523Z,99195.75
2023-05-05T04:20:36.159Z,99201.06
2023-05-05T04:21:37.977Z,99197.00
2023-05-05T04:22:39.697Z,99194.53
2023-05-05T04:23:41.430Z,99196.78
2023-05-05T04:24:43.139Z,99193.78
2023-05-05T04:25:44.906Z,99192.75
2023-05-05T04:26:46.586Z,99198.63
2023-05-05T04:27:48.281Z,99207.41
2023-05-05T04:28:50.004Z,99193.19
2023-05-05T04:29:52.086Z,99203.94
2023-05-05T04:30:53.882Z,99202.31
2023-05-05T04:31:56.268Z,99196.66
2023-05-05T04:32:57.995Z,99204.38
2023-05-05T04:33:59.835Z,99199.09
2023-05-05T04:35:01.617Z,99202.31
2023-05-05T04:36:03.395Z,99194.94
2023-05-05T04:37:05.136Z,99198.63
2023-05-05T04:38:06.843Z,99199.66
2023-05-05T04:39:08.784Z,99192.59
2023-05-05T04:40:10.928Z,99203.13
2023-05-05T04:41:12.897Z,99204.53
2023-05-05T04:42:14.700Z,99197.19
2023-05-05T04:43:16.421Z,99199.84
2023-05-05T04:44:18.227Z,99194.13
2023-05-05T04:45:19.960Z,99198.19
2023-05-05T04:46:22.066Z,99198.81
2023-05-05T04:47:23.789Z,99196.78
2023-05-05T04:48:25.556Z,99201.47
2023-05-05T04:49:30.356Z,99202.69
2023-05-05T04:50:32.606Z,99206.38
2023-05-05T04:51:34.356Z,99201.75
2023-05-05T04:52:36.168Z,99191.16
2023-05-05T04:53:37.926Z,99192.19
2023-05-05T04:54:39.652Z,99198.69
2023-05-05T04:55:41.472Z,99201.56
2023-05-05T04:56:43.168Z,99197.28
2023-05-05T04:57:44.861Z,99199.94
2023-05-05T04:58:46.564Z,99201.56
2023-05-05T04:59:48.362Z,99202.38
2023-05-05T05:00:50.059Z,99190.16
2023-05-05T05:01:51.973Z,99199.13
2023-05-05T05:02:57.240Z,99187.09
2023-05-05T05:03:59.147Z,99200.75
2023-05-05T05:05:00.939Z,99189.75
2023-05-05T05:06:02.694Z,99192.41
2023-05-05T05:07:04.378Z,99199.53
2023-05-05T05:08:06.436Z,99193.22
2023-05-05T05:09:08.461Z,99191.81
2023-05-05T05:10:10.717Z,99189.59
2023-05-05T05:11:12.792Z,99199.94
2023-05-05T05:12:14.503Z,99202.59
2023-05-05T05:13:16.254Z,99196.69
2023-05-05T05:14:17.968Z,99202.16
2023-05-05T05:15:19.788Z,99199.50
2023-05-05T05:16:22.015Z,99193.41
2023-05-05T05:17:25.068Z,99200.13
2023-05-05T05:18:27.070Z,99208.44
2023-05-05T05:19:29.233Z,99209.25
2023-05-05T05:20:31.512Z,99208.44
2023-05-05T05:21:33.236Z,99199.09
2023-05-05T05:22:35.071Z,99208.81
2023-05-05T05:23:36.875Z,99200.25
2023-05-05T05:24:38.637Z,99210.22
2023-05-05T05:25:40.400Z,99201.06
2023-05-05T05:26:42.106Z,99208.97
2023-05-05T05:27:43.822Z,99201.63
2023-05-05T05:28:45.896Z,99215.25
2023-05-05T05:29:47.634Z,99205.31
2023-05-05T05:30:49.373Z,99210.97
2023-05-05T05:31:51.243Z,99212.38
2023-05-05T05:32:53.190Z,99216.66
2023-05-05T05:33:56.302Z,99216.06
2023-05-05T05:34:58.037Z,99216.06
2023-05-05T05:35:59.718Z,99212.81
2023-05-05T05:37:01.493Z,99224.19
2023-05-05T05:38:03.192Z,99217.25
2023-05-05T05:39:04.902Z,99221.31
2023-05-05T05:40:07.360Z,99216.00
2023-05-05T05:41:09.751Z,99226.16
2023-05-05T05:42:11.454Z,99219.63
2023-05-05T05:43:13.125Z,99226.56
2023-05-05T05:44:14.837Z,99221.84
2023-05-05T05:45:16.649Z,99223.03
2023-05-05T05:46:18.473Z,99227.75
2023-05-05T05:47:20.269Z,99226.88
2023-05-05T05:48:24.891Z,99226.88
2023-05-05T05:49:26.905Z,99228.06
2023-05-05T05:50:28.843Z,99215.38
2023-05-05T05:51:30.595Z,99224.28
2023-05-05T05:52:32.544Z,99226.72
2023-05-05T05:53:34.267Z,99220.41
2023-05-05T05:54:36.017Z,99230.16
2023-05-05T05:55:37.761Z,99221.00
2023-05-05T05:56:39.539Z,99224.69
2023-05-05T05:57:41.268Z,99228.53
2023-05-05T05:58:42.981Z,99227.50
2023-05-05T05:59:44.903Z,99218.13
2023-05-05T06:00:47.965Z,99221.06
2023-05-05T06:01:49.687Z,99227.78
2023-05-05T06:02:51.786Z,99222.88
2023-05-05T06:03:53.842Z,99224.50
2023-05-05T06:04:55.614Z,99220.81
2023-05-05T06:05:59.516Z,99229.94
2023-05-05T06:07:01.406Z,99227.88
2023-05-05T06:08:03.192Z,99226.41
2023-05-05T06:09:04.908Z,99225.16
2023-05-05T06:10:25.155Z,99222.63
2023-05-05T06:11:28.000Z,99217.31
2023-05-05T06:12:29.847Z,99217.25
2023-05-05T06:13:31.621Z,99224.31
2023-05-05T06:14:33.353Z,99224.09
2023-05-05T06:15:35.040Z,99219.19
2023-05-05T06:16:36.731Z,99222.78
2023-05-05T06:17:38.550Z,99224.41
2023-05-05T06:18:40.353Z,99196.34
2023-05-05T06:19:43.403Z,99228.84
2023-05-05T06:20:45.264Z,99224.09
2023-05-05T06:21:47.116Z,99232.19
2023-05-05T06:22:48.857Z,99233.81
2023-05-05T06:23:53.645Z,99225.84
2023-05-05T06:24:55.416Z,99231.91
2023-05-05T06:25:57.293Z,99223.03
2023-05-05T06:26:59.777Z,99223.97
2023-05-05T06:28:02.546Z,99221.09
2023-05-05T06:29:04.305Z,99223.88
2023-05-05T06:30:07.665Z,99219.28
2023-05-05T06:31:09.839Z,99226.56
2023-05-05T06:32:12.822Z,99219.31
2023-05-05T06:33:14.558Z,99222.44
2023-05-05T06:34:16.330Z,99220.47
2023-05-05T06:35:18.564Z,99216.34
2023-05-05T06:36:20.341Z,99214.25
2023-05-05T06:37:22.021Z,99212.50
2023-05-05T06:38:23.966Z,99211.97
2023-05-05T06:39:25.671Z,99217.69
2023-05-05T06:40:27.414Z,99216.88
2023-05-05T06:41:29.212Z,99220.66
2023-05-05T06:42:32.294Z,99213.47
2023-05-05T06:43:34.799Z,99216.09
2023-05-05T06:44:36.625Z,99222.72
2023-05-05T06:45:38.335Z,99213.53
2023-05-05T06:46:40.383Z,99214.31
2023-05-05T06:47:45.289Z,99219.03
2023-05-05T06:48:47.029Z,99210.91
2023-05-05T06:49:48.724Z,99215.84
2023-05-05T06:50:50.407Z,99220.13
2023-05-05T06:51:52.115Z,99220.78
2023-05-05T06:52:53.808Z,99216.34
2023-05-05T06:53:55.583Z,99201.91
2023-05-05T06:54:57.289Z,99226.50
2023-05-05T06:55:59.064Z,99222.63
2023-05-05T06:57:00.863Z,99214.28
2023-05-05T06:58:02.726Z,99211.72
2023-05-05T06:59:04.430Z,99204.31
2023-05-05T07:00:10.008Z,99216.31
2023-05-05T07:01:12.180Z,99214.38
2023-05-05T07:02:13.945Z,99216.69
2023-05-05T07:03:15.772Z,99216.25
2023-05-05T07:04:17.634Z,99205.41
2023-05-05T07:05:19.608Z,99207.00
2023-05-05T07:06:21.324Z,99211.59
2023-05-05T07:07:23.047Z,99217.47
2023-05-05T07:08:25.488Z,99217.22
2023-05-05T07:09:27.212Z,99222.38
2023-05-05T07:10:28.983Z,99215.75
2023-05-05T07:11:30.755Z,99221.13
2023-05-05T07:12:32.568Z,99217.56
2023-05-05T07:13:34.295Z,99201.84
2023-05-05T07:14:36.099Z,99210.38
2023-05-05T07:15:37.896Z,99217.00
2023-05-05T07:16:39.667Z,99216.31
2023-05-05T07:17:41.733Z,99208.59
2023-05-05T07:18:43.455Z,99220.50
2023-05-05T07:19:45.276Z,99217.38
2023-05-05T07:20:47.303Z,99216.31
2023-05-05T07:21:49.010Z,99216.91
2023-05-05T07:22:50.688Z,99215.91
2023-05-05T07:23:52.435Z,99220.56
2023-05-05T07:24:54.200Z,99220.09
2023-05-05T07:25:56.148Z,99226.31
2023-05-05T07:26:57.918Z,99212.44
2023-05-05T07:27:59.780Z,99219.72
2023-05-05T07:29:02.875Z,99217.41
2023-05-05T07:30:10.177Z,99210.22
2023-05-05T07:31:14.266Z,99220.16
2023-05-05T07:32:16.243Z,99214.78
2023-05-05T07:33:18.751Z,99215.91
2023-05-05T07:34:20.586Z,99216.72
2023-05-05T07:35:23.451Z,99214.31
2023-05-05T07:36:25.232Z,99225.28
2023-05-05T07:37:27.273Z,99225.56
2023-05-05T07:38:29.033Z,99223.16
2023-05-05T07:39:31.329Z,99217.25
2023-05-05T07:40:34.551Z,99225.81
2023-05-05T07:41:36.434Z,99222.88
2023-05-05T07:42:38.157Z,99220.16
2023-05-05T07:43:44.535Z,99230.91
2023-05-05T07:44:46.490Z,99216.34
2023-05-05T07:45:48.230Z,99225.00
2023-05-05T07:46:50.061Z,99222.78
2023-05-05T07:47:51.786Z,99224.38
2023-05-05T07:48:53.536Z,99227.22
2023-05-05T07:49:55.216Z,99226.28
2023-05-05T07:50:56.923Z,99228.44
2023-05-05T07:51:58.657Z,99228.84
2023-05-05T07:53:10.768Z,99222.47
2023-05-05T07:54:19.376Z,99224.44
2023-05-05T07:55:21.373Z,99219.13
2023-05-05T07:56:23.176Z,99223.53
2023-05-05T07:57:24.932Z,99213.13
2023-05-05T07:58:26.636Z,99217.00
2023-05-05T07:59:28.341Z,99217.41
2023-05-05T08:00:30.131Z,99216.59
2023-05-05T08:01:32.041Z,99217.53
2023-05-05T08:02:33.929Z,99219.25
2023-05-05T08:03:36.003Z,99214.75
2023-05-05T08:04:38.036Z,99214.78
2023-05-05T08:05:39.817Z,99207.44
2023-05-05T08:06:41.515Z,99213.72
2023-05-05T08:07:44.413Z,99220.91
2023-05-05T08:08:46.119Z,99209.22
2023-05-05T08:09:47.836Z,99204.22
2023-05-05T08:10:51.574Z,99210.97
2023-05-05T08:11:53.307Z,99210.28
2023-05-05T08:12:55.121Z,99214.13
2023-05-05T08:13:56.839Z,99206.19
2023-05-05T08:14:58.524Z,99212.09
2023-05-05T08:16:00.376Z,99210.16
2023-05-05T08:17:02.158Z,99207.50
2023-05-05T08:18:04.036Z,99215.25
2023-05-05T08:19:14.597Z,99207.00
2023-05-05T08:20:27.591Z,99200.06
2023-05-05T08:21:29.338Z,99205.84
2023-05-05T08:22:31.194Z,99208.72
2023-05-05T08:23:35.101Z,99195.59
2023-05-05T08:24:36.867Z,99197.47
2023-05-05T08:25:38.617Z,99203.78
2023-05-05T08:26:40.321Z,99196.19
2023-05-05T08:27:43.072Z,99198.56
2023-05-05T08:28:44.806Z,99199.59
2023-05-05T08:29:46.527Z,99197.47
2023-05-05T08:30:49.871Z,99206.09
2023-05-05T08:31:51.627Z,99200.34
2023-05-05T08:32:53.642Z,99194.69
2023-05-05T08:33:55.988Z,99198.03
2023-05-05T08:34:57.751Z,99210.06
2023-05-05T08:35:59.553Z,99206.66
2023-05-05T08:37:01.224Z,99196.69
2023-05-05T08:38:02.939Z,99208.44
2023-05-05T08:39:04.757Z,99196.28
2023-05-05T08:40:07.537Z,99199.44
2023-05-05T08:41:13.142Z,99200.25
2023-05-05T08:42:25.505Z,99195.59
2023-05-05T08:43:36.607Z,99200.16
2023-05-05T08:44:38.473Z,99205.69
2023-05-05T08:45:41.849Z,99209.88
2023-05-05T08:46:43.842Z,99203.19
2023-05-05T08:47:45.655Z,99208.06
2023-05-05T08:48:48.895Z,99210.53
2023-05-05T08:49:55.787Z,99207.47
2023-05-05T08:51:05.646Z,99201.56
2023-05-05T08:52:11.742Z,99203.78
2023-05-05T08:53:17.744Z,99187.16
2023-05-05T08:54:20.632Z,99201.06
2023-05-05T08:55:26.845Z,99196.88
2023-05-05T08:56:38.507Z,99201.88
2023-05-05T08:57:55.678Z,99208.41
2023-05-05T08:58:59.402Z,99205.53
2023-05-05T09:00:03.137Z,99202.97
2023-05-05T09:01:07.051Z,99197.38
2023-05-05T09:02:10.660Z,99206.06
2023-05-05T09:03:13.196Z,99201.03
2023-05-05T09:04:15.837Z,99204.53
2023-05-05T09:05:18.170Z,99202.00
2023-05-05T09:06:25.717Z,99205.84
2023-05-05T09:07:27.712Z,99204.88
2023-05-05T09:08:29.748Z,99203.78
2023-05-05T09:09:32.104Z,99211.50
2023-05-05T09:10:35.398Z,99203.16
2023-05-05T09:11:39.163Z,99202.81
2023-05-05T09:12:41.714Z,99210.97
2023-05-05T09:15:03.967Z,99202.81
2023-05-05T09:16:06.139Z,99203.28
2023-05-05T09:17:22.914Z,99202.16
2023-05-05T09:18:24.916Z,99179.94
2023-05-05T09:19:26.640Z,99198.03
2023-05-05T09:20:39.229Z,99188.78
2023-05-05T09:21:49.907Z,99181.09
2023-05-05T09:22:51.718Z,99194.34
2023-05-05T09:24:09.102Z,99188.91
2023-05-05T09:25:16.848Z,99185.38
2023-05-05T09:26:18.598Z,99182.84
2023-05-05T09:27:23.581Z,99177.72
2023-05-05T09:28:26.118Z,99174.38
2023-05-05T09:29:27.863Z,99178.56
2023-05-05T09:30:29.704Z,99172.16
2023-05-05T09:31:32.377Z,99168.28
2023-05-05T09:32:48.377Z,99174.69
2023-05-05T09:33:50.202Z,99171.19
2023-05-05T09:34:58.728Z,99171.34
2023-05-05T09:36:00.754Z,99174.22
2023-05-05T09:37:02.508Z,99174.06
2023-05-05T09:38:13.190Z,99173.25
2023-05-05T09:39:17.939Z,99165.56
2023-05-05T09:40:20.848Z,99169.03
2023-05-05T09:41:43.618Z,99166.97
2023-05-05T09:42:45.853Z,99168.03
2023-05-05T09:43:52.042Z,99173.31
2023-05-05T09:44:54.428Z,99173.97
2023-05-05T09:46:16.816Z,99164.81
2023-05-05T09:47:29.328Z,99161.63
2023-05-05T09:48:32.598Z,99157.44
2023-05-05T09:49:36.352Z,99159.50
2023-05-05T09:50:44.620Z,99154.88
2023-05-05T09:51:47.331Z,99159.00
2023-05-05T09:52:55.219Z,99159.84
2023-05-05T09:53:57.788Z,99159.50
2023-05-05T09:54:59.648Z,99152.28
2023-05-05T09:56:01.473Z,99157.28
2023-05-05T09:57:03.236Z,99149.72
2023-05-05T09:58:23.731Z,99148.78
2023-05-05T09:59:25.801Z,99147.34
2023-05-05T10:00:39.821Z,99136.47
2023-05-05T10:01:43.557Z,99144.34
2023-05-05T10:02:45.644Z,99149.91
2023-05-05T10:03:52.296Z,99143.19
2023-05-05T10:05:05.889Z,99150.69
2023-05-05T10:06:07.966Z,99151.84
2023-05-05T10:07:23.515Z,99153.72
2023-05-05T10:08:34.402Z,99145.16
2023-05-05T10:09:35.983Z,99153.22
2023-05-05T10:10:46.153Z,99146.66
2023-05-05T10:11:48.072Z,99139.66
2023-05-05T10:12:50.446Z,99135.03
2023-05-05T10:13:52.386Z,99133.50
2023-05-05T10:14:56.567Z,99132.25
2023-05-05T10:15:58.846Z,99128.63
2023-05-05T10:17:01.815Z,99133.38
2023-05-05T10:18:07.519Z,99131.59
2023-05-05T10:19:14.399Z,99131.50
2023-05-05T10:20:16.266Z,99129.25
2023-05-05T10:21:21.728Z,99125.44
2023-05-05T10:22:25.105Z,99118.44
2023-05-05T10:23:49.814Z,99121.94
2023-05-05T10:25:22.293Z,99111.19
2023-05-05T10:26:27.737Z,99119.22
2023-05-05T10:27:34.198Z,99116.72
2023-05-05T10:28:46.278Z,99111.75
2023-05-05T10:30:07.784Z,99106.44
2023-05-05T10:31:26.083Z,99106.81
2023-05-05T10:33:18.276Z,99112.66
2023-05-05T10:34:45.909Z,99107.09
2023-05-05T10:35:52.780Z,99120.03
2023-05-05T10:36:57.043Z,99108.84
2023-05-05T10:38:01.201Z,99101.22
2023-05-05T10:39:03.491Z,99111.47
2023-05-05T10:40:06.338Z,99109.41
2023-05-05T10:41:10.282Z,99114.31
2023-05-05T10:42:15.131Z,99104.50
2023-05-05T10:43:17.653Z,99108.22
2023-05-05T10:44:19.670Z,99104.72
2023-05-05T10:45:21.494Z,99109.88
2023-05-05T10:46:24.238Z,99098.03
2023-05-05T10:47:28.313Z,99100.19
2023-05-05T10:48:41.207Z,99099.38
2023-05-05T10:50:27.736Z,99094.38
2023-05-05T10:51:55.709Z,99093.28
2023-05-05T10:53:18.840Z,99089.41
2023-05-05T10:54:32.205Z,99087.50
2023-05-05T10:55:59.301Z,99084.06
2023-05-05T10:57:02.800Z,99080.19
2023-05-05T10:58:04.483Z,99094.97
2023-05-05T10:59:39.188Z,99094.75
2023-05-05T11:00:41.609Z,99090.13
2023-05-05T11:01:46.908Z,99089.53
2023-05-05T11:02:52.785Z,99090.38
2023-05-05T11:04:19.663Z,99090.78
2023-05-05T11:05:22.503Z,99090.34
2023-05-05T11:06:24.241Z,99087.31
2023-05-05T11:07:27.616Z,99085.84
2023-05-05T11:08:33.297Z,99079.28
2023-05-05T11:09:42.286Z,99078.38
2023-05-05T11:10:44.904Z,99081.72
2023-05-05T11:12:03.535Z,99079.44
2023-05-05T11:13:05.199Z,99082.25
2023-05-05T11:14:24.988Z,99075.53
2023-05-05T11:15:26.703Z,99072.44
2023-05-05T11:16:47.849Z,99079.31
2023-05-05T11:17:50.107Z,99080.41
2023-05-05T11:18:51.890Z,99076.44
2023-05-05T11:19:53.620Z,99080.00
2023-05-05T11:20:58.401Z,99079.75
2023-05-05T11:22:01.936Z,99079.44
2023-05-05T11:23:03.662Z,99071.91
2023-05-05T11:24:39.828Z,99077.66
2023-05-05T11:25:44.730Z,99077.97
2023-05-05T11:26:51.492Z,99065.84
2023-05-05T11:28:06.516Z,99066.31
2023-05-05T11:29:08.531Z,99065.50
2023-05-05T11:30:11.148Z,99059.72
2023-05-05T11:31:17.151Z,99067.09
2023-05-05T11:32:20.042Z,99066.78
2023-05-05T11:33:31.298Z,99068.72
2023-05-05T11:34:33.222Z,99057.66
2023-05-05T11:36:17.166Z,99067.75
2023-05-05T11:37:24.252Z,99061.94
2023-05-05T11:39:02.508Z,99063.13
2023-05-05T11:40:22.067Z,99057.91
2023-05-05T11:41:40.854Z,99053.63
2023-05-05T11:42:42.638Z,99046.78
2023-05-05T11:43:44.467Z,99049.63
2023-05-05T11:44:49.144Z,99050.22
2023-05-05T11:46:10.959Z,99045.09
2023-05-05T11:47:12.626Z,99049.69
2023-05-05T11:48:27.450Z,99044.91
2023-05-05T11:49:30.674Z,99043.28
2023-05-05T11:50:33.426Z,99042.25
2023-05-05T11:51:35.331Z,99036.00
2023-05-05T11:52:37.070Z,99035.59
2023-05-05T11:53:45.570Z,99038.31
2023-05-05T11:54:48.785Z,99040.31
2023-05-05T11:56:06.350Z,99034.47
2023-05-05T11:57:09.241Z,99027.28
2023-05-05T11:58:20.762Z,99035.03
2023-05-05T11:59:22.900Z,99032.53
2023-05-05T12:00:34.434Z,99034.97
2023-05-05T12:01:41.129Z,99030.16
2023-05-05T12:02:43.142Z,99027.69
2023-05-05T12:03:46.002Z,99024.78
2023-05-05T12:04:48.913Z,99027.84
2023-05-05T12:05:54.941Z,99020.78
2023-05-05T12:06:57.783Z,99016.88
2023-05-05T12:07:59.849Z,99023.13
2023-05-05T12:09:02.290Z,99003.47
2023-05-05T12:10:04.291Z,99027.22
2023-05-05T12:11:08.769Z,99022.44
2023-05-05T12:12:10.579Z,99012.72
2023-05-05T12:13:21.641Z,99026.16
2023-05-05T12:14:24.763Z,99020.56
2023-05-05T12:15:31.156Z,99016.19
2023-05-05T12:16:32.916Z,99012.97
2023-05-05T12:17:40.155Z,99021.59
2023-05-05T12:18:42.525Z,99016.28
2023-05-05T12:20:02.136Z,99015.19
2023-05-05T12:21:17.937Z,99018.31
2023-05-05T12:22:25.651Z,99011.88
2023-05-05T12:23:30.150Z,99017.75
2023-05-05T12:24:32.102Z,99003.44
2023-05-05T12:25:38.333Z,99013.84
2023-05-05T12:26:40.379Z,99012.16
2023-05-05T12:27:52.205Z,99010.03
2023-05-05T12:28:54.358Z,99011.94
2023-05-05T12:29:57.647Z,99003.63
2023-05-05T12:30:59.615Z,99000.50
2023-05-05T12:32:01.513Z,98995.28
2023-05-05T12:33:04.993Z,99005.56
2023-05-05T12:34:08.863Z,98995.94
2023-05-05T12:35:11.923Z,98999.16
2023-05-05T12:36:14.332Z,99000.53
2023-05-05T12:37:19.245Z,98992.34
2023-05-05T12:38:21.142Z,99001.19
2023-05-05T12:39:22.935Z,98998.50
2023-05-05T12:40:46.478Z,98996.91
2023-05-05T12:41:48.303Z,98992.28
2023-05-05T12:42:50.086Z,98996.59
2023-05-05T12:43:59.006Z,98993.38
2023-05-05T12:45:00.810Z,98997.41